createdAt,value
2023-06-16T00:01:25.597Z,25.00
2023-06-16T00:04:30.825Z,24.90
2023-06-16T00:07:35.003Z,24.90
2023-06-16T00:10:17.188Z,24.90
2023-06-16T00:15:40.170Z,24.90
2023-06-16T00:17:54.409Z,24.90
2023-06-16T00:37:23.185Z,24.60
2023-06-16T00:41:29.960Z,24.60
2023-06-16T01:36:39.300Z,23.90
2023-06-16T01:50:29.830Z,23.70
2023-06-16T01:59:13.558Z,23.60
2023-06-16T02:08:37.908Z,23.50
2023-06-16T02:11:53.208Z,23.50
2023-06-16T02:14:42.529Z,23.50
2023-06-16T02:18:09.263Z,23.40
2023-06-16T02:21:27.995Z,23.40
2023-06-16T02:38:16.722Z,23.30
2023-06-16T02:41:59.046Z,23.20
2023-06-16T02:44:42.476Z,23.20
2023-06-16T02:58:19.404Z,23.10
2023-06-16T03:01:46.225Z,23.10
2023-06-16T03:04:35.039Z,23.00
2023-06-16T03:07:47.149Z,23.00
2023-06-16T03:19:43.386Z,22.90
2023-06-16T03:22:14.105Z,22.80
2023-06-16T03:24:47.511Z,22.80
2023-06-16T03:27:18.090Z,22.80
2023-06-16T03:30:00.353Z,22.70
2023-06-16T03:32:34.779Z,22.70
2023-06-16T03:35:07.397Z,22.70
2023-06-16T03:37:36.869Z,22.70
2023-06-16T03:40:08.734Z,22.70
2023-06-16T03:42:39.873Z,22.60
2023-06-16T03:45:11.133Z,22.60
2023-06-16T03:47:41.189Z,22.60
2023-06-16T03:50:12.623Z,22.60
2023-06-16T03:52:44.684Z,22.60
2023-06-16T03:55:15.288Z,22.60
2023-06-16T03:57:44.432Z,22.50
2023-06-16T04:00:14.549Z,22.50
2023-06-16T04:02:46.536Z,22.50
2023-06-16T04:05:27.036Z,22.50
2023-06-16T04:08:00.041Z,22.40
2023-06-16T04:10:29.204Z,22.40
2023-06-16T04:12:58.335Z,22.40
2023-06-16T04:15:29.157Z,22.40
2023-06-16T04:18:02.681Z,22.40
2023-06-16T04:20:33.389Z,22.40
2023-06-16T04:23:03.168Z,22.30
2023-06-16T04:25:32.861Z,22.30
2023-06-16T04:28:02.652Z,22.30
2023-06-16T04:30:34.701Z,22.30
2023-06-16T04:33:06.652Z,22.30
2023-06-16T04:35:40.919Z,22.30
2023-06-16T04:38:10.675Z,22.20
2023-06-16T04:40:41.150Z,22.20
2023-06-16T04:43:10.263Z,22.20
2023-06-16T04:45:44.094Z,22.30
2023-06-16T04:48:13.316Z,22.20
2023-06-16T04:50:43.895Z,22.20
2023-06-16T04:53:15.034Z,22.20
2023-06-16T04:55:44.127Z,22.20
2023-06-16T04:58:13.470Z,22.10
2023-06-16T05:00:42.550Z,22.10
2023-06-16T05:03:11.787Z,22.10
2023-06-16T05:05:40.890Z,22.10
2023-06-16T05:08:12.364Z,22.10
2023-06-16T05:10:41.998Z,22.10
2023-06-16T05:13:11.198Z,22.10
2023-06-16T05:15:40.370Z,22.10
2023-06-16T05:18:09.741Z,22.10
2023-06-16T05:20:42.653Z,22.10
2023-06-16T05:23:14.683Z,22.10
2023-06-16T05:25:43.833Z,22.10
2023-06-16T05:28:13.041Z,22.10
2023-06-16T05:30:42.265Z,22.10
2023-06-16T05:33:11.432Z,22.10
2023-06-16T05:35:40.777Z,22.10
2023-06-16T05:38:09.918Z,22.10
2023-06-16T05:40:40.390Z,22.10
2023-06-16T05:43:09.530Z,22.10
2023-06-16T05:45:41.227Z,22.10
2023-06-16T05:48:11.122Z,22.10
2023-06-16T05:50:40.299Z,22.10
2023-06-16T05:53:12.944Z,22.10
2023-06-16T05:55:44.127Z,22.10
2023-06-16T05:58:13.118Z,22.10
2023-06-16T06:00:45.873Z,22.20
2023-06-16T06:03:19.799Z,22.20
2023-06-16T06:05:49.868Z,22.20
2023-06-16T06:08:24.034Z,22.20
2023-06-16T06:10:55.075Z,22.20
2023-06-16T06:13:26.280Z,22.20
2023-06-16T06:15:56.184Z,22.20
2023-06-16T06:18:27.783Z,22.30
2023-06-16T06:20:56.898Z,22.30
2023-06-16T06:23:26.578Z,22.30
2023-06-16T06:25:57.254Z,22.30
2023-06-16T06:28:29.038Z,22.30
2023-06-16T06:30:58.126Z,22.40
2023-06-16T06:33:27.520Z,22.40
2023-06-16T06:35:56.858Z,22.40
2023-06-16T06:38:26.178Z,22.40
2023-06-16T06:40:56.907Z,22.50
2023-06-16T06:43:27.365Z,22.50
2023-06-16T06:46:06.325Z,22.50
2023-06-16T06:48:41.043Z,22.60
2023-06-16T06:51:14.579Z,22.60
2023-06-16T06:53:44.983Z,22.70
2023-06-16T06:56:16.794Z,22.70
2023-06-16T06:58:46.102Z,22.70
2023-06-16T07:01:15.182Z,22.80
2023-06-16T07:03:44.254Z,22.80
2023-06-16T07:06:16.730Z,22.80
2023-06-16T07:08:45.737Z,22.90
2023-06-16T07:11:16.229Z,22.90
2023-06-16T07:13:45.254Z,23.00
2023-06-16T07:16:14.416Z,23.00
2023-06-16T07:18:43.526Z,23.00
2023-06-16T07:21:12.606Z,23.10
2023-06-16T07:23:41.623Z,23.20
2023-06-16T07:26:10.629Z,23.20
2023-06-16T07:28:43.915Z,23.20
2023-06-16T07:31:13.205Z,23.30
2023-06-16T07:33:42.457Z,23.30
2023-06-16T07:36:11.557Z,23.40
2023-06-16T07:38:40.720Z,23.40
2023-06-16T07:41:09.765Z,23.50
2023-06-16T07:43:40.280Z,23.50
2023-06-16T07:46:09.394Z,23.50
2023-06-16T07:48:38.532Z,23.60
2023-06-16T07:51:07.687Z,23.60
2023-06-16T07:53:36.832Z,23.70
2023-06-16T07:56:06.355Z,23.70
2023-06-16T07:58:36.524Z,23.80
2023-06-16T08:01:07.869Z,23.80
2023-06-16T08:03:37.475Z,23.90
2023-06-16T08:06:07.815Z,23.90
2023-06-16T08:08:37.175Z,24.00
2023-06-16T08:11:07.320Z,24.10
2023-06-16T08:13:38.610Z,24.10
2023-06-16T08:16:12.307Z,24.20
2023-06-16T08:18:41.386Z,24.20
2023-06-16T08:21:10.434Z,24.30
2023-06-16T08:23:39.482Z,24.30
2023-06-16T08:26:08.529Z,24.40
2023-06-16T08:28:39.189Z,24.50
2023-06-16T08:31:08.678Z,24.50
2023-06-16T08:33:39.081Z,24.60
2023-06-16T08:36:08.306Z,24.70
2023-06-16T08:38:39.581Z,24.70
2023-06-16T08:41:11.447Z,24.80
2023-06-16T08:43:40.817Z,24.90
2023-06-16T08:46:10.213Z,24.90
2023-06-16T08:48:41.058Z,25.00
2023-06-16T08:51:12.504Z,25.00
2023-06-16T08:53:44.591Z,25.10
2023-06-16T08:56:13.950Z,25.20
2023-06-16T08:58:43.541Z,25.20
2023-06-16T09:01:12.677Z,25.30
2023-06-16T09:03:49.356Z,25.40
2023-06-16T09:06:18.594Z,25.40
2023-06-16T09:08:47.647Z,25.50
2023-06-16T09:11:24.962Z,25.50
2023-06-16T09:13:55.388Z,25.60
2023-06-16T09:16:26.080Z,25.70
2023-06-16T09:18:56.524Z,25.70
2023-06-16T09:21:28.852Z,25.80
2023-06-16T09:24:04.582Z,25.80
2023-06-16T09:26:37.297Z,25.90
2023-06-16T09:29:25.285Z,26.00
2023-06-16T09:31:55.090Z,26.00
2023-06-16T09:34:34.762Z,26.10
2023-06-16T09:37:06.986Z,26.20
2023-06-16T09:39:36.805Z,26.20
2023-06-16T09:42:13.701Z,26.30
2023-06-16T09:44:43.242Z,26.30
2023-06-16T09:47:16.320Z,26.40
2023-06-16T09:49:47.182Z,26.40
2023-06-16T09:52:19.158Z,26.50
2023-06-16T09:54:48.669Z,26.60
2023-06-16T09:57:19.178Z,26.60
2023-06-16T09:59:48.757Z,26.70
2023-06-16T10:02:19.157Z,26.70
2023-06-16T10:04:54.628Z,26.70
2023-06-16T10:07:25.113Z,26.80
2023-06-16T10:10:03.450Z,26.90
2023-06-16T10:12:36.614Z,26.90
2023-06-16T10:15:08.674Z,26.90
2023-06-16T10:17:41.665Z,27.00
2023-06-16T10:20:15.116Z,27.00
2023-06-16T10:22:44.778Z,27.10
2023-06-16T10:25:14.884Z,27.10
2023-06-16T10:27:45.427Z,27.20
2023-06-16T10:30:21.805Z,27.20
2023-06-16T10:32:55.309Z,27.20
2023-06-16T10:35:26.274Z,27.30
2023-06-16T10:37:57.576Z,27.30
2023-06-16T10:40:29.374Z,27.40
2023-06-16T10:43:00.298Z,27.40
2023-06-16T10:45:33.152Z,27.40
2023-06-16T10:48:05.420Z,27.50
2023-06-16T10:50:45.044Z,27.50
2023-06-16T10:53:16.177Z,27.50
2023-06-16T10:55:46.677Z,27.60
2023-06-16T10:58:28.268Z,27.60
2023-06-16T11:01:26.376Z,27.70
2023-06-16T11:04:03.294Z,27.70
2023-06-16T11:07:26.768Z,27.70
2023-06-16T11:10:02.173Z,27.70
2023-06-16T11:12:31.756Z,27.80
2023-06-16T11:15:01.683Z,27.80
2023-06-16T11:17:31.808Z,27.80
2023-06-16T11:20:02.868Z,27.80
2023-06-16T11:22:34.777Z,27.90
2023-06-16T11:25:05.447Z,27.90
2023-06-16T11:27:35.653Z,27.90
2023-06-16T11:30:07.568Z,28.00
2023-06-16T11:32:38.983Z,28.00
2023-06-16T11:35:09.927Z,28.00
2023-06-16T11:37:50.463Z,28.10
2023-06-16T11:40:23.599Z,28.00
2023-06-16T11:42:57.898Z,28.10
2023-06-16T11:45:30.425Z,28.10
2023-06-16T11:48:02.088Z,28.10
2023-06-16T11:50:32.339Z,28.10
2023-06-16T11:53:03.504Z,28.10
2023-06-16T11:55:33.261Z,28.10
2023-06-16T11:58:03.293Z,28.20
2023-06-16T12:00:33.433Z,28.20
2023-06-16T12:03:04.101Z,28.20
2023-06-16T12:05:34.265Z,28.20
2023-06-16T12:08:05.231Z,28.30
2023-06-16T12:10:34.694Z,28.30
2023-06-16T12:13:04.138Z,28.30
2023-06-16T12:15:35.039Z,28.30
2023-06-16T12:18:04.755Z,28.30
2023-06-16T12:20:34.290Z,28.40
2023-06-16T12:23:05.160Z,28.40
2023-06-16T12:25:36.439Z,28.40
2023-06-16T12:28:06.216Z,28.40
2023-06-16T12:30:37.113Z,28.40
2023-06-16T12:33:14.067Z,28.50
2023-06-16T12:35:44.010Z,28.50
2023-06-16T12:38:14.866Z,28.50
2023-06-16T12:40:44.350Z,28.50
2023-06-16T12:43:24.066Z,28.50
2023-06-16T12:45:53.875Z,28.50
2023-06-16T12:48:23.489Z,28.60
2023-06-16T12:50:53.039Z,28.60
2023-06-16T12:53:25.017Z,28.60
2023-06-16T12:55:54.480Z,28.60
2023-06-16T12:58:24.094Z,28.60
2023-06-16T13:00:53.497Z,28.60
2023-06-16T13:03:23.301Z,28.60
2023-06-16T13:05:53.795Z,28.60
2023-06-16T13:08:24.578Z,28.70
2023-06-16T13:10:54.096Z,28.70
2023-06-16T13:13:23.658Z,28.70
2023-06-16T13:15:53.180Z,28.70
2023-06-16T13:18:22.754Z,28.70
2023-06-16T13:20:52.828Z,28.70
2023-06-16T13:23:24.460Z,28.70
2023-06-16T13:25:53.911Z,28.80
2023-06-16T13:28:23.407Z,28.80
2023-06-16T13:30:52.944Z,28.80
2023-06-16T13:33:22.492Z,28.80
2023-06-16T13:35:51.970Z,28.80
2023-06-16T13:38:21.427Z,28.80
2023-06-16T13:40:52.286Z,28.80
2023-06-16T13:43:21.716Z,28.80
2023-06-16T13:45:51.232Z,28.80
2023-06-16T13:48:20.789Z,28.80
2023-06-16T13:50:50.379Z,28.80
2023-06-16T13:53:20.861Z,28.90
2023-06-16T13:55:51.898Z,28.90
2023-06-16T13:58:24.353Z,28.90
2023-06-16T14:00:55.211Z,28.90
2023-06-16T14:03:27.279Z,28.90
2023-06-16T14:05:57.347Z,28.90
2023-06-16T14:08:26.849Z,28.90
2023-06-16T14:10:58.230Z,28.90
2023-06-16T14:13:27.655Z,28.90
2023-06-16T14:15:57.417Z,28.90
2023-06-16T14:18:26.823Z,28.90
2023-06-16T14:20:56.276Z,29.00
2023-06-16T14:23:27.539Z,29.00
2023-06-16T14:25:58.548Z,29.00
2023-06-16T14:28:28.174Z,29.00
2023-06-16T14:30:58.846Z,29.00
2023-06-16T14:33:31.088Z,29.00
2023-06-16T14:36:00.705Z,29.00
2023-06-16T14:38:30.218Z,29.00
2023-06-16T14:41:03.544Z,29.00
2023-06-16T14:43:33.038Z,29.00
2023-06-16T14:46:02.475Z,29.00
2023-06-16T14:48:32.030Z,29.00
2023-06-16T14:51:01.694Z,29.00
2023-06-16T14:53:31.243Z,29.00
2023-06-16T14:56:02.076Z,29.00
2023-06-16T14:58:31.887Z,29.00
2023-06-16T15:01:01.425Z,29.00
2023-06-16T15:03:31.183Z,29.00
2023-06-16T15:06:03.347Z,29.00
2023-06-16T15:08:32.899Z,29.00
2023-06-16T15:11:03.823Z,28.90
2023-06-16T15:13:33.347Z,28.90
2023-06-16T15:16:02.859Z,28.90
2023-06-16T15:18:32.474Z,28.90
2023-06-16T15:21:03.940Z,28.90
2023-06-16T15:23:33.372Z,28.90
2023-06-16T15:26:04.237Z,28.90
2023-06-16T15:28:33.694Z,28.90
2023-06-16T15:31:03.230Z,28.80
2023-06-16T15:33:35.803Z,28.80
2023-06-16T15:36:06.691Z,28.80
2023-06-16T15:38:38.988Z,28.80
2023-06-16T15:41:10.036Z,28.80
2023-06-16T15:43:39.477Z,28.80
2023-06-16T15:46:08.886Z,28.80
2023-06-16T15:48:44.924Z,28.80
2023-06-16T15:51:14.659Z,28.80
2023-06-16T15:53:44.156Z,28.70
2023-06-16T15:56:15.055Z,28.70
2023-06-16T15:58:44.936Z,28.70
2023-06-16T16:01:14.576Z,28.70
2023-06-16T16:03:44.295Z,28.70
2023-06-16T16:06:13.773Z,28.70
2023-06-16T16:08:43.391Z,28.70
2023-06-16T16:11:14.315Z,28.70
2023-06-16T16:13:43.824Z,28.70
2023-06-16T16:16:13.418Z,28.70
2023-06-16T16:18:42.964Z,28.70
2023-06-16T16:21:15.625Z,28.70
2023-06-16T16:23:45.181Z,28.60
2023-06-16T16:26:15.982Z,28.60
2023-06-16T16:28:45.631Z,28.60
2023-06-16T16:31:15.339Z,28.60
2023-06-16T16:33:44.942Z,28.60
2023-06-16T16:36:15.751Z,28.60
2023-06-16T16:38:45.400Z,28.60
2023-06-16T16:41:16.329Z,28.60
2023-06-16T16:43:45.905Z,28.60
2023-06-16T16:46:15.557Z,28.60
2023-06-16T16:48:45.914Z,28.60
2023-06-16T16:51:15.481Z,28.60
2023-06-16T16:53:45.047Z,28.60
2023-06-16T16:56:16.125Z,28.50
2023-06-16T16:58:46.501Z,28.50
2023-06-16T17:01:16.890Z,28.50
2023-06-16T17:03:46.413Z,28.50
2023-06-16T17:06:16.071Z,28.50
2023-06-16T17:08:45.669Z,28.50
2023-06-16T17:11:16.788Z,28.50
2023-06-16T17:13:46.548Z,28.50
2023-06-16T17:16:16.189Z,28.50
2023-06-16T17:18:46.344Z,28.50
2023-06-16T17:21:15.933Z,28.40
2023-06-16T17:23:45.509Z,28.40
2023-06-16T17:26:16.612Z,28.40
2023-06-16T17:28:46.133Z,28.40
2023-06-16T17:31:15.709Z,28.40
2023-06-16T17:33:45.188Z,28.40
2023-06-16T17:36:15.556Z,28.40
2023-06-16T17:38:45.134Z,28.40
2023-06-16T17:41:19.230Z,28.40
2023-06-16T17:43:49.851Z,28.40
2023-06-16T17:46:21.841Z,28.40
2023-06-16T17:48:54.345Z,28.40
2023-06-16T17:51:23.716Z,28.40
2023-06-16T17:53:53.617Z,28.40
2023-06-16T17:56:24.560Z,28.40
2023-06-16T17:58:54.097Z,28.40
2023-06-16T18:01:23.726Z,28.30
2023-06-16T18:03:53.266Z,28.30
2023-06-16T18:06:22.751Z,28.30
2023-06-16T18:08:52.438Z,28.30
2023-06-16T18:11:23.302Z,28.30
2023-06-16T18:13:52.949Z,28.30
2023-06-16T18:16:23.083Z,28.30
2023-06-16T18:18:55.104Z,28.30
2023-06-16T18:21:27.607Z,28.30
2023-06-16T18:24:00.169Z,28.30
2023-06-16T18:26:31.107Z,28.30
2023-06-16T18:29:01.689Z,28.30
2023-06-16T18:31:34.107Z,28.30
2023-06-16T18:34:03.595Z,28.30
2023-06-16T18:36:33.733Z,28.20
2023-06-16T18:39:16.234Z,28.20
2023-06-16T18:41:49.090Z,28.20
2023-06-16T18:44:19.173Z,28.20
2023-06-16T18:46:48.713Z,28.20
2023-06-16T18:49:19.450Z,28.20
2023-06-16T18:51:48.970Z,28.10
2023-06-16T18:54:18.540Z,28.20
2023-06-16T18:56:49.408Z,28.10
2023-06-16T18:59:18.859Z,28.10
2023-06-16T19:01:51.401Z,28.10
2023-06-16T19:04:20.982Z,28.10
2023-06-16T19:06:50.401Z,28.10
2023-06-16T19:09:19.911Z,28.10
2023-06-16T19:11:50.746Z,28.00
2023-06-16T19:14:20.334Z,28.00
2023-06-16T19:16:49.762Z,28.00
2023-06-16T19:19:19.217Z,28.00
2023-06-16T19:21:48.826Z,28.00
2023-06-16T19:24:18.782Z,28.00
2023-06-16T19:26:50.104Z,27.90
2023-06-16T19:29:21.341Z,27.90
2023-06-16T19:31:51.582Z,27.90
2023-06-16T19:34:21.506Z,27.90
2023-06-16T19:36:53.853Z,27.90
2023-06-16T19:39:23.271Z,27.80
2023-06-16T19:41:54.107Z,27.80
2023-06-16T19:44:23.515Z,27.80
2023-06-16T19:46:53.042Z,27.70
2023-06-16T19:49:22.503Z,27.70
2023-06-16T19:51:52.886Z,27.70
2023-06-16T19:54:22.488Z,27.60
2023-06-16T19:56:54.219Z,27.60
2023-06-16T19:59:23.932Z,27.60
2023-06-16T20:01:53.475Z,27.50
2023-06-16T20:04:22.952Z,27.50
2023-06-16T20:06:58.538Z,27.50
2023-06-16T20:09:28.045Z,27.50
2023-06-16T20:12:01.825Z,27.50
2023-06-16T20:14:31.509Z,27.40
2023-06-16T20:17:02.068Z,27.40
2023-06-16T20:19:32.509Z,27.40
2023-06-16T20:22:01.896Z,27.30
2023-06-16T20:24:31.391Z,27.30
2023-06-16T20:27:05.708Z,27.30
2023-06-16T20:29:35.164Z,27.20
2023-06-16T20:32:04.873Z,27.20
2023-06-16T20:34:34.324Z,27.20
2023-06-16T20:37:03.986Z,27.20
2023-06-16T20:39:33.598Z,27.10
2023-06-16T20:42:05.859Z,27.10
2023-06-16T20:44:37.879Z,27.10
2023-06-16T20:47:09.520Z,27.10
2023-06-16T20:49:41.660Z,27.00
2023-06-16T20:52:11.499Z,27.00
2023-06-16T20:54:41.056Z,27.00
2023-06-16T20:57:12.189Z,26.90
2023-06-16T20:59:41.873Z,26.90
2023-06-16T21:02:11.358Z,26.80
2023-06-16T21:04:41.996Z,26.90
2023-06-16T21:07:11.468Z,26.80
2023-06-16T21:09:41.597Z,26.70
2023-06-16T21:12:13.018Z,26.70
2023-06-16T21:14:42.445Z,26.70
2023-06-16T21:17:12.778Z,26.70
2023-06-16T21:19:46.528Z,26.60
2023-06-16T21:22:19.253Z,26.60
2023-06-16T21:24:48.810Z,26.60
2023-06-16T21:27:19.807Z,26.50
2023-06-16T21:29:49.393Z,26.50
2023-06-16T21:32:18.946Z,26.40
2023-06-16T21:34:48.433Z,26.40
2023-06-16T21:37:19.969Z,26.40
2023-06-16T21:40:07.929Z,26.40
2023-06-16T21:42:41.683Z,26.30
2023-06-16T21:45:14.104Z,26.30
2023-06-16T21:47:43.874Z,26.30
2023-06-16T21:50:13.610Z,26.20
2023-06-16T21:52:43.631Z,26.20
2023-06-16T21:55:12.778Z,26.20
2023-06-16T21:57:43.116Z,26.20
2023-06-16T22:00:14.285Z,26.10
2023-06-16T22:02:43.490Z,26.10
2023-06-16T22:05:13.296Z,26.10
2023-06-16T22:07:42.399Z,26.00
2023-06-16T22:10:13.017Z,26.00
2023-06-16T22:12:46.665Z,26.00
2023-06-16T22:15:16.445Z,25.90
2023-06-16T22:17:46.446Z,25.90
2023-06-16T22:20:16.370Z,25.90
2023-06-16T22:22:45.805Z,25.80
2023-06-16T22:25:15.294Z,25.80
2023-06-16T22:27:48.192Z,25.80
2023-06-16T22:30:19.477Z,25.80
2023-06-16T22:32:51.233Z,25.70
2023-06-16T22:35:20.890Z,25.70
2023-06-16T22:37:50.369Z,25.60
2023-06-16T22:40:20.386Z,25.60
2023-06-16T22:42:53.372Z,25.60
2023-06-16T22:45:22.914Z,25.50
2023-06-16T22:47:53.114Z,25.50
2023-06-16T22:50:22.813Z,25.50
2023-06-16T22:52:52.568Z,25.50
2023-06-16T22:55:22.292Z,25.40
2023-06-16T22:57:53.101Z,25.40
2023-06-16T23:00:24.738Z,25.30
2023-06-16T23:02:57.221Z,25.30
2023-06-16T23:05:26.852Z,25.30
2023-06-16T23:07:56.975Z,25.30
2023-06-16T23:10:26.826Z,25.20
2023-06-16T23:12:58.444Z,25.20
2023-06-16T23:15:28.623Z,25.20
2023-06-16T23:17:58.611Z,25.20
2023-06-16T23:20:28.329Z,25.10
2023-06-16T23:23:00.862Z,25.10
2023-06-16T23:25:30.404Z,25.00
2023-06-16T23:28:01.963Z,25.00
2023-06-16T23:30:33.135Z,25.00
2023-06-16T23:33:03.845Z,24.90
2023-06-16T23:35:33.626Z,24.90
2023-06-16T23:38:03.068Z,24.90
2023-06-16T23:40:32.635Z,24.90
2023-06-16T23:43:04.602Z,24.80
2023-06-16T23:45:34.075Z,24.80
2023-06-16T23:48:03.547Z,24.80
2023-06-16T23:50:33.603Z,24.80
2023-06-16T23:53:05.574Z,24.70
2023-06-16T23:55:35.157Z,24.70
2023-06-16T23:58:06.324Z,24.70
